sensor_id;sensor_type;location;lat;lon;timestamp;P1;durP1;ratioP1;P2;durP2;ratioP2
22097;SDS011;11215;51.938;8.464;2022-10-22T00:00:55;6.47;;;3.53;;
22097;SDS011;11215;51.938;8.464;2022-10-22T00:03:22;4.40;;;3.63;;
22097;SDS011;11215;51.938;8.464;2022-10-22T00:05:48;4.10;;;3.70;;
22097;SDS011;11215;51.938;8.464;2022-10-22T00:08:13;6.30;;;3.77;;
22097;SDS011;11215;51.938;8.464;2022-10-22T00:10:40;3.57;;;3.27;;
22097;SDS011;11215;51.938;8.464;2022-10-22T00:13:06;4.60;;;3.60;;
22097;SDS011;11215;51.938;8.464;2022-10-22T00:15:31;7.20;;;3.37;;
22097;SDS011;11215;51.938;8.464;2022-10-22T00:17:58;3.83;;;3.10;;
22097;SDS011;11215;51.938;8.464;2022-10-22T00:20:24;5.30;;;2.97;;
22097;SDS011;11215;51.938;8.464;2022-10-22T00:22:50;5.13;;;3.10;;
22097;SDS011;11215;51.938;8.464;2022-10-22T00:25:16;4.40;;;3.07;;
22097;SDS011;11215;51.938;8.464;2022-10-22T00:27:41;2.80;;;2.30;;
22097;SDS011;11215;51.938;8.464;2022-10-22T00:30:08;3.83;;;3.33;;
22097;SDS011;11215;51.938;8.464;2022-10-22T00:32:35;7.80;;;3.57;;
22097;SDS011;11215;51.938;8.464;2022-10-22T00:35:01;3.53;;;2.50;;
22097;SDS011;11215;51.938;8.464;2022-10-22T00:37:27;4.60;;;3.30;;
22097;SDS011;11215;51.938;8.464;2022-10-22T00:39:54;5.97;;;3.43;;
22097;SDS011;11215;51.938;8.464;2022-10-22T00:42:21;4.00;;;3.30;;
22097;SDS011;11215;51.938;8.464;2022-10-22T00:47:38;3.87;;;3.13;;
22097;SDS011;11215;51.938;8.464;2022-10-22T00:50:05;6.57;;;3.20;;
22097;SDS011;11215;51.938;8.464;2022-10-22T00:52:53;4.50;;;3.20;;
22097;SDS011;11215;51.938;8.464;2022-10-22T00:55:20;5.43;;;3.30;;
22097;SDS011;11215;51.938;8.464;2022-10-22T00:57:51;4.07;;;3.10;;
22097;SDS011;11215;51.938;8.464;2022-10-22T01:00:19;6.17;;;3.00;;
22097;SDS011;11215;51.938;8.464;2022-10-22T01:02:45;6.00;;;3.87;;
22097;SDS011;11215;51.938;8.464;2022-10-22T01:05:14;4.63;;;3.20;;
22097;SDS011;11215;51.938;8.464;2022-10-22T01:07:41;6.00;;;4.33;;
22097;SDS011;11215;51.938;8.464;2022-10-22T01:10:17;6.93;;;4.07;;
22097;SDS011;11215;51.938;8.464;2022-10-22T01:18:45;7.93;;;5.90;;
22097;SDS011;11215;51.938;8.464;2022-10-22T01:21:22;16.60;;;11.67;;
22097;SDS011;11215;51.938;8.464;2022-10-22T01:29:47;22.67;;;13.93;;
22097;SDS011;11215;51.938;8.464;2022-10-22T01:32:21;26.30;;;17.00;;
22097;SDS011;11215;51.938;8.464;2022-10-22T01:34:50;33.17;;;19.40;;
22097;SDS011;11215;51.938;8.464;2022-10-22T01:37:24;28.50;;;19.07;;
22097;SDS011;11215;51.938;8.464;2022-10-22T01:39:55;21.40;;;15.37;;
22097;SDS011;11215;51.938;8.464;2022-10-22T01:42:23;18.73;;;13.67;;
22097;SDS011;11215;51.938;8.464;2022-10-22T01:44:49;13.93;;;10.47;;
22097;SDS011;11215;51.938;8.464;2022-10-22T02:00:31;7.30;;;4.60;;
22097;SDS011;11215;51.938;8.464;2022-10-22T02:05:36;4.13;;;3.73;;
22097;SDS011;11215;51.938;8.464;2022-10-22T02:08:12;4.50;;;4.10;;
22097;SDS011;11215;51.938;8.464;2022-10-22T02:10:42;3.77;;;3.37;;
22097;SDS011;11215;51.938;8.464;2022-10-22T02:13:53;4.07;;;3.60;;
22097;SDS011;11215;51.938;8.464;2022-10-22T02:16:05;4.67;;;3.30;;
22097;SDS011;11215;51.938;8.464;2022-10-22T02:18:34;5.93;;;3.00;;
22097;SDS011;11215;51.938;8.464;2022-10-22T02:21:04;3.23;;;2.93;;
22097;SDS011;11215;51.938;8.464;2022-10-22T02:23:31;3.40;;;2.70;;
22097;SDS011;11215;51.938;8.464;2022-10-22T02:26:01;4.40;;;2.50;;
22097;SDS011;11215;51.938;8.464;2022-10-22T02:28:34;4.33;;;2.87;;
22097;SDS011;11215;51.938;8.464;2022-10-22T02:31:20;7.60;;;3.27;;
22097;SDS011;11215;51.938;8.464;2022-10-22T02:33:49;4.17;;;2.70;;
22097;SDS011;11215;51.938;8.464;2022-10-22T02:36:19;4.17;;;2.77;;
22097;SDS011;11215;51.938;8.464;2022-10-22T02:38:46;3.60;;;2.50;;
22097;SDS011;11215;51.938;8.464;2022-10-22T02:41:15;6.00;;;2.57;;
22097;SDS011;11215;51.938;8.464;2022-10-22T02:43:44;5.77;;;3.00;;
22097;SDS011;11215;51.938;8.464;2022-10-22T02:46:14;4.60;;;2.83;;
22097;SDS011;11215;51.938;8.464;2022-10-22T02:48:40;2.97;;;2.73;;
22097;SDS011;11215;51.938;8.464;2022-10-22T02:51:06;3.70;;;2.90;;
22097;SDS011;11215;51.938;8.464;2022-10-22T02:53:32;4.63;;;3.70;;
22097;SDS011;11215;51.938;8.464;2022-10-22T02:55:58;8.83;;;4.30;;
22097;SDS011;11215;51.938;8.464;2022-10-22T02:58:24;3.97;;;3.57;;
22097;SDS011;11215;51.938;8.464;2022-10-22T03:00:50;5.93;;;3.23;;
22097;SDS011;11215;51.938;8.464;2022-10-22T03:03:16;7.83;;;4.23;;
22097;SDS011;11215;51.938;8.464;2022-10-22T03:05:42;3.73;;;3.07;;
22097;SDS011;11215;51.938;8.464;2022-10-22T03:08:08;6.50;;;3.50;;
22097;SDS011;11215;51.938;8.464;2022-10-22T03:10:37;6.17;;;3.50;;
22097;SDS011;11215;51.938;8.464;2022-10-22T03:13:03;3.83;;;3.10;;
22097;SDS011;11215;51.938;8.464;2022-10-22T03:15:29;4.77;;;3.10;;
22097;SDS011;11215;51.938;8.464;2022-10-22T03:17:55;6.57;;;2.93;;
22097;SDS011;11215;51.938;8.464;2022-10-22T03:20:21;4.07;;;2.77;;
22097;SDS011;11215;51.938;8.464;2022-10-22T03:22:46;5.23;;;2.50;;
22097;SDS011;11215;51.938;8.464;2022-10-22T03:25:13;7.03;;;2.93;;
22097;SDS011;11215;51.938;8.464;2022-10-22T03:27:43;3.57;;;2.90;;
22097;SDS011;11215;51.938;8.464;2022-10-22T03:30:10;3.43;;;3.10;;
22097;SDS011;11215;51.938;8.464;2022-10-22T03:32:36;5.40;;;2.53;;
22097;SDS011;11215;51.938;8.464;2022-10-22T03:35:03;5.73;;;3.00;;
22097;SDS011;11215;51.938;8.464;2022-10-22T03:37:29;4.47;;;3.10;;
22097;SDS011;11215;51.938;8.464;2022-10-22T03:39:55;3.07;;;2.77;;
22097;SDS011;11215;51.938;8.464;2022-10-22T03:42:21;3.37;;;3.07;;
22097;SDS011;11215;51.938;8.464;2022-10-22T03:44:48;3.60;;;2.90;;
22097;SDS011;11215;51.938;8.464;2022-10-22T03:47:14;4.73;;;3.30;;
22097;SDS011;11215;51.938;8.464;2022-10-22T03:49:40;3.53;;;2.73;;
22097;SDS011;11215;51.938;8.464;2022-10-22T03:52:06;3.47;;;2.70;;
22097;SDS011;11215;51.938;8.464;2022-10-22T03:54:34;6.83;;;3.10;;
22097;SDS011;11215;51.938;8.464;2022-10-22T03:57:00;3.87;;;3.00;;
22097;SDS011;11215;51.938;8.464;2022-10-22T03:59:27;4.30;;;2.70;;
22097;SDS011;11215;51.938;8.464;2022-10-22T04:01:53;5.03;;;2.50;;
22097;SDS011;11215;51.938;8.464;2022-10-22T04:04:19;2.97;;;2.60;;
22097;SDS011;11215;51.938;8.464;2022-10-22T04:06:45;3.13;;;2.83;;
22097;SDS011;11215;51.938;8.464;2022-10-22T04:09:11;7.00;;;3.27;;
22097;SDS011;11215;51.938;8.464;2022-10-22T04:11:37;4.73;;;3.43;;
22097;SDS011;11215;51.938;8.464;2022-10-22T04:14:03;3.33;;;2.57;;
22097;SDS011;11215;51.938;8.464;2022-10-22T04:16:30;6.07;;;4.17;;
22097;SDS011;11215;51.938;8.464;2022-10-22T04:18:57;4.60;;;3.10;;
22097;SDS011;11215;51.938;8.464;2022-10-22T04:21:23;3.40;;;2.83;;
22097;SDS011;11215;51.938;8.464;2022-10-22T04:23:50;5.40;;;2.93;;
22097;SDS011;11215;51.938;8.464;2022-10-22T04:26:17;3.53;;;2.53;;
22097;SDS011;11215;51.938;8.464;2022-10-22T04:28:44;5.57;;;2.37;;
22097;SDS011;11215;51.938;8.464;2022-10-22T04:31:12;3.57;;;3.10;;
22097;SDS011;11215;51.938;8.464;2022-10-22T04:33:40;3.77;;;2.83;;
22097;SDS011;11215;51.938;8.464;2022-10-22T04:36:07;3.27;;;2.30;;
22097;SDS011;11215;51.938;8.464;2022-10-22T04:38:37;2.67;;;2.43;;
22097;SDS011;11215;51.938;8.464;2022-10-22T04:41:23;3.60;;;2.50;;
22097;SDS011;11215;51.938;8.464;2022-10-22T04:43:51;2.77;;;2.30;;
22097;SDS011;11215;51.938;8.464;2022-10-22T04:46:18;3.60;;;2.77;;
22097;SDS011;11215;51.938;8.464;2022-10-22T04:48:45;3.50;;;2.53;;
22097;SDS011;11215;51.938;8.464;2022-10-22T04:51:12;3.67;;;2.70;;
22097;SDS011;11215;51.938;8.464;2022-10-22T04:53:40;4.27;;;2.60;;
22097;SDS011;11215;51.938;8.464;2022-10-22T04:56:08;3.67;;;2.97;;
22097;SDS011;11215;51.938;8.464;2022-10-22T04:58:37;5.83;;;2.90;;
22097;SDS011;11215;51.938;8.464;2022-10-22T05:01:11;4.17;;;2.67;;
22097;SDS011;11215;51.938;8.464;2022-10-22T05:03:38;5.20;;;3.10;;
22097;SDS011;11215;51.938;8.464;2022-10-22T05:06:04;5.77;;;2.80;;
22097;SDS011;11215;51.938;8.464;2022-10-22T05:08:30;3.10;;;2.80;;
22097;SDS011;11215;51.938;8.464;2022-10-22T05:10:56;3.40;;;2.50;;
22097;SDS011;11215;51.938;8.464;2022-10-22T05:13:21;4.23;;;2.90;;
22097;SDS011;11215;51.938;8.464;2022-10-22T05:15:47;5.53;;;2.97;;
22097;SDS011;11215;51.938;8.464;2022-10-22T05:18:13;3.67;;;2.80;;
22097;SDS011;11215;51.938;8.464;2022-10-22T05:20:42;6.40;;;2.57;;
22097;SDS011;11215;51.938;8.464;2022-10-22T05:23:08;4.97;;;2.80;;
22097;SDS011;11215;51.938;8.464;2022-10-22T05:25:37;3.87;;;2.30;;
22097;SDS011;11215;51.938;8.464;2022-10-22T05:28:03;3.23;;;2.43;;
22097;SDS011;11215;51.938;8.464;2022-10-22T05:30:30;3.90;;;2.87;;
22097;SDS011;11215;51.938;8.464;2022-10-22T05:32:56;4.40;;;2.90;;
22097;SDS011;11215;51.938;8.464;2022-10-22T05:35:22;3.77;;;2.00;;
22097;SDS011;11215;51.938;8.464;2022-10-22T05:37:48;2.47;;;2.23;;
22097;SDS011;11215;51.938;8.464;2022-10-22T05:40:14;4.30;;;2.40;;
22097;SDS011;11215;51.938;8.464;2022-10-22T05:42:40;5.27;;;2.90;;
22097;SDS011;11215;51.938;8.464;2022-10-22T05:45:06;5.17;;;2.60;;
22097;SDS011;11215;51.938;8.464;2022-10-22T05:47:32;4.27;;;2.67;;
22097;SDS011;11215;51.938;8.464;2022-10-22T05:49:58;4.90;;;2.90;;
22097;SDS011;11215;51.938;8.464;2022-10-22T05:52:24;4.20;;;2.80;;
22097;SDS011;11215;51.938;8.464;2022-10-22T05:54:50;3.13;;;2.47;;
22097;SDS011;11215;51.938;8.464;2022-10-22T05:57:16;3.40;;;2.60;;
22097;SDS011;11215;51.938;8.464;2022-10-22T05:59:41;4.03;;;2.40;;
22097;SDS011;11215;51.938;8.464;2022-10-22T06:02:08;4.13;;;2.67;;
22097;SDS011;11215;51.938;8.464;2022-10-22T06:04:34;6.03;;;3.00;;
22097;SDS011;11215;51.938;8.464;2022-10-22T06:07:00;6.47;;;3.40;;
22097;SDS011;11215;51.938;8.464;2022-10-22T06:09:33;6.83;;;3.33;;
22097;SDS011;11215;51.938;8.464;2022-10-22T06:12:00;4.00;;;3.23;;
22097;SDS011;11215;51.938;8.464;2022-10-22T06:14:27;4.60;;;3.03;;
22097;SDS011;11215;51.938;8.464;2022-10-22T06:16:53;5.80;;;3.17;;
22097;SDS011;11215;51.938;8.464;2022-10-22T06:19:20;6.93;;;2.97;;
22097;SDS011;11215;51.938;8.464;2022-10-22T06:21:47;5.80;;;4.03;;
22097;SDS011;11215;51.938;8.464;2022-10-22T06:24:13;7.03;;;4.03;;
22097;SDS011;11215;51.938;8.464;2022-10-22T06:26:42;4.40;;;4.00;;
22097;SDS011;11215;51.938;8.464;2022-10-22T06:29:08;7.00;;;3.90;;
22097;SDS011;11215;51.938;8.464;2022-10-22T06:31:34;5.53;;;3.00;;
22097;SDS011;11215;51.938;8.464;2022-10-22T06:34:01;4.17;;;3.03;;
22097;SDS011;11215;51.938;8.464;2022-10-22T06:36:28;5.33;;;4.00;;
22097;SDS011;11215;51.938;8.464;2022-10-22T06:38:54;4.33;;;3.70;;
22097;SDS011;11215;51.938;8.464;2022-10-22T06:41:21;4.13;;;3.00;;
22097;SDS011;11215;51.938;8.464;2022-10-22T06:43:48;4.10;;;2.90;;
22097;SDS011;11215;51.938;8.464;2022-10-22T06:46:17;4.83;;;2.87;;
22097;SDS011;11215;51.938;8.464;2022-10-22T06:48:58;4.00;;;2.67;;
22097;SDS011;11215;51.938;8.464;2022-10-22T06:51:25;3.93;;;3.13;;
22097;SDS011;11215;51.938;8.464;2022-10-22T06:53:52;5.43;;;2.60;;
22097;SDS011;11215;51.938;8.464;2022-10-22T06:56:20;5.67;;;2.97;;
22097;SDS011;11215;51.938;8.464;2022-10-22T06:58:47;3.30;;;2.90;;
22097;SDS011;11215;51.938;8.464;2022-10-22T07:01:15;3.70;;;2.63;;
22097;SDS011;11215;51.938;8.464;2022-10-22T07:03:42;5.37;;;2.80;;
22097;SDS011;11215;51.938;8.464;2022-10-22T07:06:09;7.40;;;3.37;;
22097;SDS011;11215;51.938;8.464;2022-10-22T07:08:39;5.03;;;3.13;;
22097;SDS011;11215;51.938;8.464;2022-10-22T07:11:13;4.33;;;3.00;;
22097;SDS011;11215;51.938;8.464;2022-10-22T07:13:41;3.83;;;3.13;;
22097;SDS011;11215;51.938;8.464;2022-10-22T07:16:08;4.57;;;3.20;;
22097;SDS011;11215;51.938;8.464;2022-10-22T07:18:34;6.73;;;3.20;;
22097;SDS011;11215;51.938;8.464;2022-10-22T07:21:01;6.20;;;3.30;;
22097;SDS011;11215;51.938;8.464;2022-10-22T07:23:28;5.20;;;3.17;;
22097;SDS011;11215;51.938;8.464;2022-10-22T07:25:54;6.70;;;3.83;;
22097;SDS011;11215;51.938;8.464;2022-10-22T07:28:21;9.47;;;3.63;;
22097;SDS011;11215;51.938;8.464;2022-10-22T07:30:47;6.27;;;4.13;;
22097;SDS011;11215;51.938;8.464;2022-10-22T07:33:13;11.13;;;4.50;;
22097;SDS011;11215;51.938;8.464;2022-10-22T07:35:40;3.80;;;3.40;;
22097;SDS011;11215;51.938;8.464;2022-10-22T07:38:06;4.40;;;3.53;;
22097;SDS011;11215;51.938;8.464;2022-10-22T07:40:32;7.50;;;4.20;;
22097;SDS011;11215;51.938;8.464;2022-10-22T07:42:59;4.63;;;3.17;;
22097;SDS011;11215;51.938;8.464;2022-10-22T07:45:26;7.37;;;3.97;;
22097;SDS011;11215;51.938;8.464;2022-10-22T07:47:52;7.07;;;3.77;;
22097;SDS011;11215;51.938;8.464;2022-10-22T07:50:18;3.87;;;3.43;;
22097;SDS011;11215;51.938;8.464;2022-10-22T07:52:44;6.20;;;3.83;;
22097;SDS011;11215;51.938;8.464;2022-10-22T07:55:10;7.03;;;3.90;;
22097;SDS011;11215;51.938;8.464;2022-10-22T07:57:37;6.93;;;3.83;;
22097;SDS011;11215;51.938;8.464;2022-10-22T08:00:05;4.70;;;3.30;;
22097;SDS011;11215;51.938;8.464;2022-10-22T08:02:32;4.80;;;3.30;;
22097;SDS011;11215;51.938;8.464;2022-10-22T08:04:58;7.60;;;3.50;;
22097;SDS011;11215;51.938;8.464;2022-10-22T08:07:24;4.97;;;3.17;;
22097;SDS011;11215;51.938;8.464;2022-10-22T08:09:50;14.87;;;10.60;;
22097;SDS011;11215;51.938;8.464;2022-10-22T08:12:15;5.50;;;4.03;;
22097;SDS011;11215;51.938;8.464;2022-10-22T08:14:41;4.33;;;3.20;;
22097;SDS011;11215;51.938;8.464;2022-10-22T08:17:07;7.83;;;3.57;;
22097;SDS011;11215;51.938;8.464;2022-10-22T08:19:33;7.47;;;6.43;;
22097;SDS011;11215;51.938;8.464;2022-10-22T08:22:00;9.17;;;6.20;;
22097;SDS011;11215;51.938;8.464;2022-10-22T08:24:26;13.40;;;10.17;;
22097;SDS011;11215;51.938;8.464;2022-10-22T08:26:53;10.17;;;6.50;;
22097;SDS011;11215;51.938;8.464;2022-10-22T08:29:20;33.57;;;30.03;;
22097;SDS011;11215;51.938;8.464;2022-10-22T08:31:47;17.67;;;15.20;;
22097;SDS011;11215;51.938;8.464;2022-10-22T08:34:13;9.17;;;8.27;;
22097;SDS011;11215;51.938;8.464;2022-10-22T08:36:39;15.53;;;11.77;;
22097;SDS011;11215;51.938;8.464;2022-10-22T08:39:05;7.93;;;5.60;;
22097;SDS011;11215;51.938;8.464;2022-10-22T08:41:32;7.83;;;3.93;;
22097;SDS011;11215;51.938;8.464;2022-10-22T08:44:14;5.10;;;4.57;;
22097;SDS011;11215;51.938;8.464;2022-10-22T08:49:44;9.43;;;5.80;;
22097;SDS011;11215;51.938;8.464;2022-10-22T08:52:15;5.83;;;4.83;;
22097;SDS011;11215;51.938;8.464;2022-10-22T08:54:55;4.93;;;4.13;;
22097;SDS011;11215;51.938;8.464;2022-10-22T09:05:55;8.13;;;4.90;;
22097;SDS011;11215;51.938;8.464;2022-10-22T09:08:26;5.13;;;4.63;;
22097;SDS011;11215;51.938;8.464;2022-10-22T09:13:36;9.10;;;4.60;;
22097;SDS011;11215;51.938;8.464;2022-10-22T09:16:11;8.57;;;4.30;;
22097;SDS011;11215;51.938;8.464;2022-10-22T09:19:05;7.37;;;4.47;;
22097;SDS011;11215;51.938;8.464;2022-10-22T09:24:36;4.83;;;4.03;;
22097;SDS011;11215;51.938;8.464;2022-10-22T09:27:39;4.73;;;4.20;;
22097;SDS011;11215;51.938;8.464;2022-10-22T09:30:05;8.60;;;4.40;;
22097;SDS011;11215;51.938;8.464;2022-10-22T09:32:31;6.93;;;4.20;;
22097;SDS011;11215;51.938;8.464;2022-10-22T09:34:57;5.30;;;3.70;;
22097;SDS011;11215;51.938;8.464;2022-10-22T09:37:27;5.60;;;4.20;;
22097;SDS011;11215;51.938;8.464;2022-10-22T09:39:55;12.20;;;4.93;;
22097;SDS011;11215;51.938;8.464;2022-10-22T09:42:22;6.37;;;4.27;;
22097;SDS011;11215;51.938;8.464;2022-10-22T09:44:53;8.90;;;4.23;;
22097;SDS011;11215;51.938;8.464;2022-10-22T09:47:31;8.23;;;3.93;;
22097;SDS011;11215;51.938;8.464;2022-10-22T09:52:44;7.07;;;3.67;;
22097;SDS011;11215;51.938;8.464;2022-10-22T09:55:18;5.93;;;2.80;;
22097;SDS011;11215;51.938;8.464;2022-10-22T09:57:51;4.90;;;2.70;;
22097;SDS011;11215;51.938;8.464;2022-10-22T10:00:22;5.90;;;2.70;;
22097;SDS011;11215;51.938;8.464;2022-10-22T10:02:53;5.70;;;2.63;;
22097;SDS011;11215;51.938;8.464;2022-10-22T10:05:24;9.33;;;3.00;;
22097;SDS011;11215;51.938;8.464;2022-10-22T10:07:55;6.97;;;3.07;;
22097;SDS011;11215;51.938;8.464;2022-10-22T10:10:29;6.67;;;3.00;;
22097;SDS011;11215;51.938;8.464;2022-10-22T10:13:12;5.37;;;3.23;;
22097;SDS011;11215;51.938;8.464;2022-10-22T10:18:35;8.07;;;2.67;;
22097;SDS011;11215;51.938;8.464;2022-10-22T10:26:51;4.97;;;2.00;;
22097;SDS011;11215;51.938;8.464;2022-10-22T10:40:36;5.53;;;2.60;;
22097;SDS011;11215;51.938;8.464;2022-10-22T10:51:29;4.73;;;2.33;;
22097;SDS011;11215;51.938;8.464;2022-10-22T10:54:17;4.60;;;2.20;;
22097;SDS011;11215;51.938;8.464;2022-10-22T10:56:47;3.70;;;2.00;;
22097;SDS011;11215;51.938;8.464;2022-10-22T11:02:08;6.17;;;2.80;;
22097;SDS011;11215;51.938;8.464;2022-10-22T11:07:45;6.60;;;2.53;;
22097;SDS011;11215;51.938;8.464;2022-10-22T11:13:17;9.30;;;2.50;;
22097;SDS011;11215;51.938;8.464;2022-10-22T11:24:11;5.93;;;3.30;;
22097;SDS011;11215;51.938;8.464;2022-10-22T11:29:51;6.40;;;2.80;;
22097;SDS011;11215;51.938;8.464;2022-10-22T11:32:24;4.30;;;2.87;;
22097;SDS011;11215;51.938;8.464;2022-10-22T11:35:02;8.67;;;2.70;;
22097;SDS011;11215;51.938;8.464;2022-10-22T11:37:31;5.27;;;2.97;;
22097;SDS011;11215;51.938;8.464;2022-10-22T11:40:06;5.93;;;3.67;;
22097;SDS011;11215;51.938;8.464;2022-10-22T11:42:43;6.77;;;4.13;;
22097;SDS011;11215;51.938;8.464;2022-10-22T11:48:26;10.60;;;3.63;;
22097;SDS011;11215;51.938;8.464;2022-10-22T11:53:36;6.47;;;2.93;;
22097;SDS011;11215;51.938;8.464;2022-10-22T11:58:32;8.40;;;2.80;;
22097;SDS011;11215;51.938;8.464;2022-10-22T12:13:55;10.03;;;3.00;;
22097;SDS011;11215;51.938;8.464;2022-10-22T12:21:39;7.47;;;2.70;;
22097;SDS011;11215;51.938;8.464;2022-10-22T12:24:10;3.57;;;2.40;;
22097;SDS011;11215;51.938;8.464;2022-10-22T12:26:39;9.07;;;2.47;;
22097;SDS011;11215;51.938;8.464;2022-10-22T12:29:08;6.27;;;2.30;;
22097;SDS011;11215;51.938;8.464;2022-10-22T12:31:37;2.70;;;2.40;;
22097;SDS011;11215;51.938;8.464;2022-10-22T12:34:04;8.40;;;2.30;;
22097;SDS011;11215;51.938;8.464;2022-10-22T12:36:31;4.77;;;2.33;;
22097;SDS011;11215;51.938;8.464;2022-10-22T12:38:59;6.93;;;2.80;;
22097;SDS011;11215;51.938;8.464;2022-10-22T12:41:31;4.17;;;2.50;;
22097;SDS011;11215;51.938;8.464;2022-10-22T12:43:59;5.40;;;2.60;;
22097;SDS011;11215;51.938;8.464;2022-10-22T12:46:27;5.93;;;2.40;;
22097;SDS011;11215;51.938;8.464;2022-10-22T12:48:57;3.77;;;2.13;;
22097;SDS011;11215;51.938;8.464;2022-10-22T12:51:24;5.73;;;2.43;;
22097;SDS011;11215;51.938;8.464;2022-10-22T12:53:51;5.43;;;2.47;;
22097;SDS011;11215;51.938;8.464;2022-10-22T12:56:22;5.77;;;2.47;;
22097;SDS011;11215;51.938;8.464;2022-10-22T12:58:55;9.27;;;2.87;;
22097;SDS011;11215;51.938;8.464;2022-10-22T13:01:26;5.13;;;2.63;;
22097;SDS011;11215;51.938;8.464;2022-10-22T13:06:49;4.60;;;2.27;;
22097;SDS011;11215;51.938;8.464;2022-10-22T13:09:20;3.17;;;2.13;;
22097;SDS011;11215;51.938;8.464;2022-10-22T13:11:49;4.07;;;2.23;;
22097;SDS011;11215;51.938;8.464;2022-10-22T13:14:20;4.80;;;1.63;;
22097;SDS011;11215;51.938;8.464;2022-10-22T13:20:18;4.73;;;1.77;;
22097;SDS011;11215;51.938;8.464;2022-10-22T13:25:30;5.03;;;1.60;;
22097;SDS011;11215;51.938;8.464;2022-10-22T13:27:59;4.97;;;1.97;;
22097;SDS011;11215;51.938;8.464;2022-10-22T13:30:32;4.33;;;1.50;;
22097;SDS011;11215;51.938;8.464;2022-10-22T13:33:03;4.07;;;1.83;;
22097;SDS011;11215;51.938;8.464;2022-10-22T13:35:34;2.17;;;1.30;;
22097;SDS011;11215;51.938;8.464;2022-10-22T13:38:02;2.23;;;1.30;;
22097;SDS011;11215;51.938;8.464;2022-10-22T13:40:39;5.73;;;1.50;;
22097;SDS011;11215;51.938;8.464;2022-10-22T13:43:05;4.43;;;1.60;;
22097;SDS011;11215;51.938;8.464;2022-10-22T13:45:31;5.63;;;1.33;;
22097;SDS011;11215;51.938;8.464;2022-10-22T13:47:57;5.30;;;1.20;;
22097;SDS011;11215;51.938;8.464;2022-10-22T13:50:23;2.47;;;1.20;;
22097;SDS011;11215;51.938;8.464;2022-10-22T13:52:51;3.10;;;1.23;;
22097;SDS011;11215;51.938;8.464;2022-10-22T13:55:20;2.20;;;1.07;;
22097;SDS011;11215;51.938;8.464;2022-10-22T13:57:55;5.03;;;1.37;;
22097;SDS011;11215;51.938;8.464;2022-10-22T14:00:26;4.07;;;1.40;;
22097;SDS011;11215;51.938;8.464;2022-10-22T14:02:53;3.80;;;1.03;;
22097;SDS011;11215;51.938;8.464;2022-10-22T14:05:22;2.63;;;1.20;;
22097;SDS011;11215;51.938;8.464;2022-10-22T14:07:48;4.50;;;1.63;;
22097;SDS011;11215;51.938;8.464;2022-10-22T14:12:44;2.63;;;1.10;;
22097;SDS011;11215;51.938;8.464;2022-10-22T14:15:11;3.83;;;1.40;;
22097;SDS011;11215;51.938;8.464;2022-10-22T14:17:39;2.77;;;1.50;;
22097;SDS011;11215;51.938;8.464;2022-10-22T14:20:09;2.90;;;1.13;;
22097;SDS011;11215;51.938;8.464;2022-10-22T14:22:45;5.77;;;1.30;;
22097;SDS011;11215;51.938;8.464;2022-10-22T14:25:14;2.53;;;0.93;;
22097;SDS011;11215;51.938;8.464;2022-10-22T14:27:45;3.93;;;1.40;;
22097;SDS011;11215;51.938;8.464;2022-10-22T14:30:15;3.37;;;1.53;;
22097;SDS011;11215;51.938;8.464;2022-10-22T14:32:48;2.80;;;1.40;;
22097;SDS011;11215;51.938;8.464;2022-10-22T14:35:20;5.70;;;1.47;;
22097;SDS011;11215;51.938;8.464;2022-10-22T14:37:46;3.87;;;1.13;;
22097;SDS011;11215;51.938;8.464;2022-10-22T14:40:14;4.67;;;1.50;;
22097;SDS011;11215;51.938;8.464;2022-10-22T14:42:42;4.43;;;1.33;;
22097;SDS011;11215;51.938;8.464;2022-10-22T14:45:20;3.63;;;1.20;;
22097;SDS011;11215;51.938;8.464;2022-10-22T14:47:47;3.70;;;1.40;;
22097;SDS011;11215;51.938;8.464;2022-10-22T14:50:14;2.93;;;1.37;;
22097;SDS011;11215;51.938;8.464;2022-10-22T14:52:40;3.20;;;1.93;;
22097;SDS011;11215;51.938;8.464;2022-10-22T14:55:08;5.23;;;1.13;;
22097;SDS011;11215;51.938;8.464;2022-10-22T14:57:34;3.40;;;1.43;;
22097;SDS011;11215;51.938;8.464;2022-10-22T15:00:01;4.40;;;1.20;;
22097;SDS011;11215;51.938;8.464;2022-10-22T15:02:28;1.97;;;1.10;;
22097;SDS011;11215;51.938;8.464;2022-10-22T15:04:54;3.40;;;1.10;;
22097;SDS011;11215;51.938;8.464;2022-10-22T15:07:20;4.10;;;1.67;;
22097;SDS011;11215;51.938;8.464;2022-10-22T15:09:48;7.10;;;1.47;;
22097;SDS011;11215;51.938;8.464;2022-10-22T15:12:15;3.60;;;1.40;;
22097;SDS011;11215;51.938;8.464;2022-10-22T15:14:41;4.37;;;1.23;;
22097;SDS011;11215;51.938;8.464;2022-10-22T15:17:07;3.47;;;1.33;;
22097;SDS011;11215;51.938;8.464;2022-10-22T15:19:33;4.23;;;1.10;;
22097;SDS011;11215;51.938;8.464;2022-10-22T15:21:59;2.37;;;1.27;;
22097;SDS011;11215;51.938;8.464;2022-10-22T15:24:25;4.03;;;0.93;;
22097;SDS011;11215;51.938;8.464;2022-10-22T15:26:51;2.87;;;0.97;;
22097;SDS011;11215;51.938;8.464;2022-10-22T15:29:18;2.77;;;1.20;;
22097;SDS011;11215;51.938;8.464;2022-10-22T15:31:51;4.83;;;1.07;;
22097;SDS011;11215;51.938;8.464;2022-10-22T15:34:28;3.43;;;1.10;;
22097;SDS011;11215;51.938;8.464;2022-10-22T15:36:56;2.97;;;1.00;;
22097;SDS011;11215;51.938;8.464;2022-10-22T15:39:23;3.40;;;1.00;;
22097;SDS011;11215;51.938;8.464;2022-10-22T15:41:50;2.23;;;1.10;;
22097;SDS011;11215;51.938;8.464;2022-10-22T15:44:18;4.53;;;1.50;;
22097;SDS011;11215;51.938;8.464;2022-10-22T15:46:54;3.20;;;1.20;;
22097;SDS011;11215;51.938;8.464;2022-10-22T15:49:21;2.43;;;1.20;;
22097;SDS011;11215;51.938;8.464;2022-10-22T15:51:48;3.83;;;1.33;;
22097;SDS011;11215;51.938;8.464;2022-10-22T15:54:16;2.97;;;1.20;;
22097;SDS011;11215;51.938;8.464;2022-10-22T15:56:44;5.57;;;1.80;;
22097;SDS011;11215;51.938;8.464;2022-10-22T15:59:10;3.43;;;1.40;;
22097;SDS011;11215;51.938;8.464;2022-10-22T16:01:37;3.90;;;1.30;;
22097;SDS011;11215;51.938;8.464;2022-10-22T16:04:04;3.63;;;1.40;;
22097;SDS011;11215;51.938;8.464;2022-10-22T16:07:00;2.00;;;1.00;;
22097;SDS011;11215;51.938;8.464;2022-10-22T16:09:22;3.90;;;1.50;;
22097;SDS011;11215;51.938;8.464;2022-10-22T16:11:50;2.90;;;1.23;;
22097;SDS011;11215;51.938;8.464;2022-10-22T16:14:17;3.73;;;1.43;;
22097;SDS011;11215;51.938;8.464;2022-10-22T16:16:46;4.03;;;1.53;;
22097;SDS011;11215;51.938;8.464;2022-10-22T16:19:13;3.73;;;1.33;;
22097;SDS011;11215;51.938;8.464;2022-10-22T16:21:41;4.63;;;1.70;;
22097;SDS011;11215;51.938;8.464;2022-10-22T16:24:07;2.97;;;1.43;;
22097;SDS011;11215;51.938;8.464;2022-10-22T16:26:33;3.43;;;1.50;;
22097;SDS011;11215;51.938;8.464;2022-10-22T16:29:00;4.67;;;1.50;;
22097;SDS011;11215;51.938;8.464;2022-10-22T16:31:26;2.60;;;1.47;;
22097;SDS011;11215;51.938;8.464;2022-10-22T16:33:52;3.00;;;1.30;;
22097;SDS011;11215;51.938;8.464;2022-10-22T16:36:19;1.40;;;1.30;;
22097;SDS011;11215;51.938;8.464;2022-10-22T16:38:46;4.87;;;1.57;;
22097;SDS011;11215;51.938;8.464;2022-10-22T16:41:17;3.07;;;1.50;;
22097;SDS011;11215;51.938;8.464;2022-10-22T16:43:45;4.17;;;1.83;;
22097;SDS011;11215;51.938;8.464;2022-10-22T16:46:19;3.23;;;1.63;;
22097;SDS011;11215;51.938;8.464;2022-10-22T16:48:47;3.20;;;2.00;;
22097;SDS011;11215;51.938;8.464;2022-10-22T16:51:15;3.33;;;1.90;;
22097;SDS011;11215;51.938;8.464;2022-10-22T16:53:44;3.40;;;1.87;;
22097;SDS011;11215;51.938;8.464;2022-10-22T16:56:10;3.03;;;1.80;;
22097;SDS011;11215;51.938;8.464;2022-10-22T16:58:37;4.17;;;1.90;;
22097;SDS011;11215;51.938;8.464;2022-10-22T17:01:07;2.87;;;1.77;;
22097;SDS011;11215;51.938;8.464;2022-10-22T17:03:34;2.73;;;1.60;;
22097;SDS011;11215;51.938;8.464;2022-10-22T17:06:00;4.00;;;1.90;;
22097;SDS011;11215;51.938;8.464;2022-10-22T17:08:28;4.17;;;2.23;;
22097;SDS011;11215;51.938;8.464;2022-10-22T17:10:54;5.83;;;3.50;;